< Typhoon 197609 1976 Season Typhoon 197611 >
Typhoon 197610 (VIOLET)
General InformationTrack Information on Google Maps || Disaster Info.ResourceGoogle EarthGE AnimationAtom FeedGeoJSON
Detalied Best Track (Time Zone = UTC)
Year Month Day Hour Lat. Long. Pressure (hPa) Wind (kt) Class Image Chart
1976 7 19 12 15.6 118.0 1002 0 2 -- Chart
1976 7 19 18 15.5 117.8 1002 0 2 -- Chart
1976 7 20 00 15.5 117.6 1002 0 2 -- Chart
1976 7 20 06 15.5 117.4 1002 0 2 -- Chart
1976 7 20 12 15.6 117.1 1002 0 2 -- Chart
1976 7 20 18 15.8 116.4 1002 0 2 -- Chart
1976 7 21 00 16.1 115.8 1000 0 2 -- Chart
1976 7 21 06 16.3 115.3 998 0 2 -- Chart
1976 7 21 12 16.9 114.8 998 0 2 -- Chart
1976 7 21 18 17.6 114.2 996 0 9 -- Chart
1976 7 22 00 18.2 113.7 994 0 9 -- Chart
1976 7 22 06 18.4 112.8 990 0 9 -- Chart
1976 7 22 12 18.4 112.0 990 0 9 -- Chart
1976 7 22 18 18.4 111.6 990 0 9 -- Chart
1976 7 23 00 18.7 111.2 990 0 9 -- Chart
1976 7 23 06 19.0 111.3 990 0 9 -- Chart
1976 7 23 12 19.2 111.2 992 0 9 -- Chart
1976 7 23 18 19.4 110.8 992 0 9 -- Chart
1976 7 24 00 19.1 110.9 990 0 9 -- Chart
1976 7 24 06 19.2 111.4 990 0 9 -- Chart
1976 7 24 12 19.7 111.8 990 0 9 -- Chart
1976 7 24 18 19.8 112.4 990 0 9 -- Chart
1976 7 25 00 20.3 112.7 990 0 9 -- Chart
1976 7 25 06 20.9 112.7 985 0 9 -- Chart
1976 7 25 12 21.5 112.7 985 0 9 -- Chart
1976 7 25 18 21.8 112.3 985 0 9 -- Chart
1976 7 26 00 21.8 111.0 985 0 9 -- Chart
1976 7 26 06 21.9 110.0 994 0 2 -- Chart
1976 7 26 12 22.0 109.0 994 0 2 -- Chart
1976 7 26 18 22.2 107.5 996 0 2 -- Chart
1976 7 27 00 22.2 106.0 996 0 2 -- Chart
1976 7 27 06 22.0 104.0 998 0 2 -- Chart
1976 7 27 12 22.0 103.0 998 0 6 -- Chart
1976 7 27 18 22.0 102.0 1000 0 6 -- Chart
Japan Meteorological Agency Best Track Data | Correction Date : 1992-10-21
< Typhoon 197609 1976 Season Typhoon 197611 >

Help